Time;durP1;ratioP1;P1;durP2;ratioP2;P2;SDS_P1;SDS_P2;PMS_P1;PMS_P2;Temp;Humidity;BMP_temperature;BMP_pressure;BME280_temperature;BME280_humidity;BME280_pressure;Samples;Min_cycle;Max_cycle;Signal;HPM_P1;HPM_P2
2023/04/07 00:03:39;;;;;;;29.80;16.13;;;;;;;10.31;100.00;100369.03;8357723;28;20045;-60
2023/04/07 00:07:40;;;;;;;26.25;14.60;;;;;;;10.39;100.00;100374.59;8356501;28;20415;-60
2023/04/07 00:11:40;;;;;;;22.95;15.05;;;;;;;10.27;100.00;100383.84;8355131;28;20080;-60
2023/04/07 00:15:41;;;;;;;30.00;16.10;;;;;;;10.48;100.00;100384.53;8356811;28;20121;-60
2023/04/07 00:19:42;;;;;;;29.60;15.70;;;;;;;10.57;100.00;100380.97;8354768;28;20076;-56
2023/04/07 00:23:43;;;;;;;31.00;17.35;;;;;;;10.66;100.00;100379.25;8356112;28;20407;-56
2023/04/07 00:27:44;;;;;;;35.75;19.42;;;;;;;10.71;100.00;100380.56;8356459;28;20063;-60
2023/04/07 00:31:44;;;;;;;38.15;19.50;;;;;;;10.70;100.00;100380.69;8355681;28;20047;-60
2023/04/07 00:35:45;;;;;;;39.75;20.10;;;;;;;10.75;100.00;100370.28;8360705;28;20036;-60
2023/04/07 00:39:45;;;;;;;40.47;20.17;;;;;;;10.77;100.00;100373.69;8374306;28;20040;-59
2023/04/07 00:43:46;;;;;;;41.00;21.20;;;;;;;10.78;100.00;100373.56;8362094;28;20044;-60
2023/04/07 00:47:46;;;;;;;38.25;22.35;;;;;;;10.76;100.00;100370.13;8362449;28;20441;-60
2023/04/07 00:51:47;;;;;;;40.58;22.50;;;;;;;10.81;100.00;100365.16;8361688;28;20036;-60
2023/04/07 00:55:47;;;;;;;43.03;23.67;;;;;;;10.79;100.00;100369.84;8361762;28;20047;-60
2023/04/07 00:59:50;;;;;;;47.75;24.20;;;;;;;10.74;100.00;100366.72;8361113;28;20127;-60
2023/04/07 01:03:58;;;;;;;51.83;24.52;;;;;;;10.73;100.00;100359.59;8361699;28;20048;-60
2023/04/07 01:08:11;;;;;;;49.88;25.33;;;;;;;10.73;100.00;100354.19;8361360;28;20492;-60
2023/04/07 01:16:51;;;;;;;51.28;26.88;;;;;;;10.74;100.00;100366.72;8351399;27;20207;-54
2023/04/07 01:21:01;;;;;;;54.70;26.85;;;;;;;10.75;100.00;100368.44;8351901;28;20056;-54
2023/04/07 01:25:29;;;;;;;59.10;28.67;;;;;;;10.77;100.00;100362.88;8351659;28;20414;-54
2023/04/07 01:29:36;;;;;;;60.67;27.50;;;;;;;10.78;100.00;100360.03;8347038;28;20033;-54
2023/04/07 01:33:37;;;;;;;59.03;26.92;;;;;;;10.78;100.00;100367.28;8352201;28;20030;-54
2023/04/07 01:37:38;;;;;;;63.00;28.30;;;;;;;10.76;100.00;100361.16;8351697;28;20044;-53
2023/04/07 01:41:40;;;;;;;65.78;27.77;;;;;;;10.78;100.00;100365.44;8350398;28;20037;-54
2023/04/07 01:45:42;;;;;;;63.00;27.35;;;;;;;10.76;100.00;100359.31;8350340;28;20041;-54
2023/04/07 01:49:45;;;;;;;64.18;28.48;;;;;;;10.78;100.00;100368.16;8348622;28;20033;-54
2023/04/07 01:53:47;;;;;;;70.80;29.35;;;;;;;10.76;100.00;100361.16;8347069;28;20530;-54
2023/04/07 01:57:47;;;;;;;69.47;29.80;;;;;;;10.76;100.00;100364.72;8350339;28;20091;-54
2023/04/07 02:01:52;;;;;;;77.68;31.60;;;;;;;10.75;100.00;100376.53;8349937;28;20041;-54
2023/04/07 02:06:00;;;;;;;75.30;32.20;;;;;;;10.74;100.00;100369.41;8350570;28;20112;-56
2023/04/07 02:10:05;;;;;;;80.65;32.28;;;;;;;10.75;100.00;100367.56;8351126;28;20063;-54
2023/04/07 02:14:08;;;;;;;76.95;33.20;;;;;;;10.76;100.00;100370.13;8349850;28;20033;-54
2023/04/07 02:18:21;;;;;;;81.03;33.83;;;;;;;10.71;100.00;100369.72;8349540;28;20037;-54
2023/04/07 02:22:21;;;;;;;90.80;34.42;;;;;;;10.69;100.00;100360.91;8350252;28;20057;-54
2023/04/07 02:26:22;;;;;;;88.88;33.40;;;;;;;10.70;100.00;100370.72;8337641;28;20044;-54
2023/04/07 02:30:23;;;;;;;79.32;33.33;;;;;;;10.70;100.00;100373.41;8323701;28;20030;-56
2023/04/07 02:34:25;;;;;;;87.47;33.78;;;;;;;10.72;100.00;100373.28;8327932;28;20033;-55
2023/04/07 02:38:26;;;;;;;88.28;33.65;;;;;;;10.72;100.00;100374.13;8327981;28;20041;-54
2023/04/07 02:42:26;;;;;;;84.97;34.10;;;;;;;10.73;100.00;100375.81;8329388;28;20048;-54
2023/04/07 02:46:29;;;;;;;88.75;31.63;;;;;;;10.74;100.00;100382.94;8330799;28;20404;-54
2023/04/07 02:50:31;;;;;;;87.20;34.63;;;;;;;10.73;100.00;100375.00;8327231;28;20048;-54
2023/04/07 02:54:31;;;;;;;85.43;34.13;;;;;;;10.74;100.00;100377.53;8327756;28;20117;-58
2023/04/07 02:58:32;;;;;;;79.53;32.70;;;;;;;10.71;100.00;100377.84;8312175;28;20042;-58
2023/04/07 03:02:32;;;;;;;81.40;33.85;;;;;;;10.68;100.00;100383.53;8293692;28;20038;-58
2023/04/07 03:06:33;;;;;;;76.55;32.05;;;;;;;10.70;100.00;100386.09;8313761;28;20036;-58
2023/04/07 03:10:40;;;;;;;77.75;32.03;;;;;;;10.65;100.00;100382.97;8353143;28;20045;-59
2023/04/07 03:14:42;;;;;;;79.57;33.70;;;;;;;10.67;100.00;100381.81;8326628;28;20107;-58
2023/04/07 03:18:44;;;;;;;73.07;32.90;;;;;;;10.64;100.00;100376.69;8325819;28;20060;-58
2023/04/07 03:22:46;;;;;;;74.70;32.45;;;;;;;10.62;100.00;100388.66;8326412;28;20067;-58
2023/04/07 03:26:53;;;;;;;70.45;29.75;;;;;;;10.58;100.00;100388.09;8318404;28;20037;-57
2023/04/07 03:31:02;;;;;;;72.20;32.15;;;;;;;10.59;100.00;100381.69;8325763;28;20048;-58
2023/04/07 03:35:04;;;;;;;76.30;31.33;;;;;;;10.53;100.00;100387.69;8326142;28;20095;-58
2023/04/07 03:39:05;;;;;;;68.32;30.58;;;;;;;10.48;100.00;100384.53;8324780;28;20052;-59
2023/04/07 03:43:11;;;;;;;66.97;30.63;;;;;;;10.41;100.00;100391.53;8325243;28;20500;-54
2023/04/07 03:47:12;;;;;;;68.35;32.55;;;;;;;10.38;100.00;100386.41;8325735;28;20069;-54
2023/04/07 03:51:12;;;;;;;67.70;31.88;;;;;;;10.38;100.00;100385.53;8325759;28;20046;-54
2023/04/07 03:55:14;;;;;;;66.97;32.53;;;;;;;10.37;100.00;100395.50;8325462;28;20120;-54
2023/04/07 03:59:18;;;;;;;63.58;30.83;;;;;;;10.33;100.00;100399.47;8325535;28;20037;-54
2023/04/07 04:03:37;;;;;;;60.08;29.20;;;;;;;10.36;100.00;100401.03;8324052;28;20033;-54
2023/04/07 04:07:51;;;;;;;58.35;28.70;;;;;;;10.33;100.00;100399.47;8325650;28;20045;-54
2023/04/07 04:11:55;;;;;;;57.90;28.57;;;;;;;10.33;100.00;100399.47;8324661;28;20103;-55
2023/04/07 04:15:57;;;;;;;59.28;28.08;;;;;;;10.31;100.00;100406.84;8323735;28;20642;-54
2023/04/07 04:19:58;;;;;;;59.85;27.55;;;;;;;10.31;100.00;100412.25;8323874;28;20468;-54
2023/04/07 04:24:09;;;;;;;59.53;28.73;;;;;;;10.30;100.00;100404.31;8324072;28;20512;-54
2023/04/07 04:28:11;;;;;;;59.38;29.45;;;;;;;10.28;100.00;100406.31;8322661;28;20101;-60
2023/04/07 04:32:11;;;;;;;65.90;28.05;;;;;;;10.27;100.00;100424.34;8322749;28;20037;-60
2023/04/07 04:36:13;;;;;;;54.03;27.80;;;;;;;10.28;100.00;100417.94;8324466;28;20084;-59
2023/04/07 04:40:14;;;;;;;54.15;27.02;;;;;;;10.35;100.00;100434.47;8322584;28;20546;-59
2023/04/07 04:44:19;;;;;;;;;;;;;;;10.32;100.00;100432.91;8324744;28;20041;-59
2023/04/07 04:48:19;;;;;;;63.13;29.03;;;;;;;10.30;100.00;100426.78;8322797;28;19924;-60
2023/04/07 04:52:21;;;;;;;53.25;27.17;;;;;;;10.27;100.00;100437.88;8323219;28;20380;-59
2023/04/07 04:56:24;;;;;;;51.85;26.95;;;;;;;10.28;100.00;100427.94;8324276;28;20403;-59
2023/04/07 05:00:25;;;;;;;59.80;28.67;;;;;;;10.25;100.00;100434.47;8320794;28;20057;-60
2023/04/07 05:04:31;;;;;;;59.83;27.77;;;;;;;10.23;100.00;100441.00;8322737;28;20407;-60
2023/04/07 05:08:40;;;;;;;49.25;25.20;;;;;;;10.28;100.00;100444.97;8323669;28;20116;-60
2023/04/07 05:12:42;;;;;;;58.58;26.60;;;;;;;10.27;100.00;100443.28;8323649;28;20056;-60
2023/04/07 05:16:42;;;;;;;52.90;25.48;;;;;;;10.25;100.00;100445.28;8323014;28;20052;-60
2023/04/07 05:20:48;;;;;;;53.05;24.85;;;;;;;10.26;100.00;100440.72;8322162;28;20044;-60
2023/04/07 05:24:49;;;;;;;50.85;25.23;;;;;;;10.22;100.00;100450.09;8322667;28;20087;-60
2023/04/07 05:28:49;;;;;;;55.30;27.05;;;;;;;10.24;100.00;100454.38;8320850;28;20037;-60
2023/04/07 05:32:54;;;;;;;51.35;24.95;;;;;;;10.26;100.00;100446.97;8294275;28;20037;-59
2023/04/07 05:37:05;;;;;;;46.78;23.83;;;;;;;10.27;100.00;100447.84;8290847;28;20056;-60
2023/04/07 05:41:05;;;;;;;46.47;21.92;;;;;;;10.26;100.00;100457.78;8290503;28;20037;-60
2023/04/07 05:45:09;;;;;;;46.10;23.58;;;;;;;10.19;100.00;100451.25;8289739;28;20052;-61
2023/04/07 05:49:13;;;;;;;52.25;23.80;;;;;;;10.25;100.00;100466.91;8290311;28;20049;-56
2023/04/07 05:53:14;;;;;;;47.65;22.90;;;;;;;10.25;100.00;100469.59;8291920;28;20113;-56
2023/04/07 05:57:15;;;;;;;51.38;23.33;;;;;;;10.27;100.00;100467.59;8322754;28;20597;-56
2023/04/07 06:01:18;;;;;;;45.67;22.65;;;;;;;10.30;100.00;100480.81;8336422;28;20044;-56
2023/04/07 06:05:19;;;;;;;45.25;21.95;;;;;;;10.29;100.00;100479.13;8305249;28;20043;-56
2023/04/07 06:09:24;;;;;;;;;;;;;;;10.26;100.00;100486.63;8327308;28;20034;-55
2023/04/07 06:13:24;;;;;;;46.22;21.55;;;;;;;10.26;100.00;100490.22;8327235;28;19917;-56
2023/04/07 06:17:24;;;;;;;49.45;23.15;;;;;;;10.16;100.00;100494.75;8332556;28;20127;-56
2023/04/07 06:21:26;;;;;;;48.00;21.00;;;;;;;10.10;100.00;100478.22;8327972;28;20034;-56
2023/04/07 06:25:26;;;;;;;47.33;23.25;;;;;;;10.15;100.00;100506.53;8328563;28;20522;-56
2023/04/07 06:29:27;;;;;;;47.83;23.05;;;;;;;10.22;100.00;100505.00;8327633;28;20407;-56
2023/04/07 06:33:29;;;;;;;49.25;22.52;;;;;;;10.28;100.00;100501.72;8299165;28;20049;-56
2023/04/07 06:37:30;;;;;;;45.00;21.02;;;;;;;10.36;100.00;100511.81;8296199;28;20046;-56
2023/04/07 06:41:31;;;;;;;39.65;18.10;;;;;;;10.37;100.00;100508.97;8306211;28;20041;-56
2023/04/07 06:45:31;;;;;;;25.33;11.80;;;;;;;10.32;100.00;100515.81;8304892;28;20038;-56
2023/04/07 06:49:32;;;;;;;17.02;7.85;;;;;;;10.24;100.00;100516.50;8315515;28;20065;-56
2023/04/07 06:53:32;;;;;;;20.55;8.25;;;;;;;10.27;100.00;100523.50;8309400;28;20038;-56
2023/04/07 06:57:33;;;;;;;15.65;7.50;;;;;;;10.22;100.00;100518.50;8324491;28;20530;-56
2023/04/07 07:01:33;;;;;;;12.98;7.05;;;;;;;10.27;100.00;100529.72;8326240;28;20041;-56
2023/04/07 07:05:34;;;;;;;16.20;7.07;;;;;;;10.31;100.00;100531.16;8316334;28;20049;-56
2023/04/07 07:09:34;;;;;;;17.65;8.52;;;;;;;10.42;100.00;100544.56;8324841;28;20057;-56
2023/04/07 07:13:35;;;;;;;17.30;8.43;;;;;;;10.52;100.00;100544.59;8317986;28;20331;-56
2023/04/07 07:17:35;;;;;;;16.10;7.88;;;;;;;10.50;100.00;100547.44;8322611;28;20096;-56
2023/04/07 07:21:36;;;;;;;13.18;7.63;;;;;;;10.52;100.00;100550.84;8324020;28;20458;-56
2023/04/07 07:25:36;;;;;;;16.42;8.88;;;;;;;10.52;100.00;100561.66;8303994;28;20515;-56
2023/04/07 07:29:37;;;;;;;16.65;9.38;;;;;;;10.58;100.00;100555.69;8314057;28;20045;-56
2023/04/07 07:33:39;;;;;;;17.13;9.13;;;;;;;10.55;100.00;100561.38;8306922;28;20136;-56
2023/04/07 07:37:40;;;;;;;18.30;8.77;;;;;;;10.57;100.00;100563.94;8293743;28;20038;-55
2023/04/07 07:41:41;;;;;;;23.38;9.73;;;;;;;10.50;100.00;100574.47;8305693;28;20045;-56
2023/04/07 07:45:41;;;;;;;21.38;10.60;;;;;;;10.53;100.00;100567.91;8323127;28;20120;-56
2023/04/07 07:49:42;;;;;;;27.95;11.85;;;;;;;10.44;100.00;100569.63;8312634;28;20523;-56
2023/04/07 07:53:43;;;;;;;25.27;12.18;;;;;;;10.49;100.00;100570.03;8315975;28;20060;-56
2023/04/07 07:57:44;;;;;;;28.80;11.73;;;;;;;10.51;100.00;100576.16;8301811;28;20046;-56
2023/04/07 08:01:44;;;;;;;25.58;13.10;;;;;;;10.52;100.00;100572.47;8307241;28;20037;-56
2023/04/07 08:05:45;;;;;;;28.15;11.70;;;;;;;10.51;100.00;100586.97;8308433;28;20045;-56
2023/04/07 08:09:46;;;;;;;25.63;11.38;;;;;;;10.57;100.00;100583.72;8320054;28;20087;-60
2023/04/07 08:13:46;;;;;;;20.27;10.40;;;;;;;10.80;100.00;100587.88;8314006;28;20045;-60
2023/04/07 08:17:47;;;;;;;18.35;9.98;;;;;;;10.86;100.00;100587.31;8291584;28;20404;-60
2023/04/07 08:21:47;;;;;;;25.92;10.90;;;;;;;10.86;100.00;100587.31;8307392;28;20140;-59
2023/04/07 08:25:48;;;;;;;17.08;8.57;;;;;;;10.83;100.00;100598.41;8314961;28;20064;-60
2023/04/07 08:29:58;;;;;;;21.67;10.18;;;;;;;10.95;100.00;100601.88;8319161;28;20120;-59
2023/04/07 08:33:59;;;;;;;19.27;9.20;;;;;;;11.04;100.00;100601.84;8349746;28;20044;-59
2023/04/07 08:38:01;;;;;;;20.88;9.25;;;;;;;11.03;100.00;100605.56;8317840;28;20057;-60
2023/04/07 08:42:02;;;;;;;18.63;9.60;;;;;;;11.01;100.00;100607.53;8315727;28;20048;-59
2023/04/07 08:46:03;;;;;;;18.38;9.00;;;;;;;11.06;100.00;100610.69;8317435;28;20558;-56
2023/04/07 08:50:07;;;;;;;18.38;8.93;;;;;;;11.18;100.00;100620.38;8316647;28;20029;-56
2023/04/07 08:54:12;;;;;;;19.83;9.38;;;;;;;11.19;100.00;100619.38;8309435;28;20455;-56
2023/04/07 08:58:13;;;;;;;19.20;9.55;;;;;;;11.17;100.00;100626.81;8314731;28;20040;-55
2023/04/07 09:02:14;;;;;;;21.33;10.25;;;;;;;11.24;100.00;100629.78;8314029;28;20040;-55
2023/04/07 09:06:15;;;;;;;19.60;10.82;;;;;;;11.15;100.00;100619.81;8288576;28;20045;-56
2023/04/07 09:10:16;;;;;;;22.55;11.07;;;;;;;11.02;100.00;100630.91;8313158;28;20053;-56
2023/04/07 09:14:17;;;;;;;22.95;10.93;;;;;;;11.02;100.00;100625.50;8288075;28;20049;-56
2023/04/07 09:18:18;;;;;;;27.92;13.18;;;;;;;10.83;100.00;100622.75;8283090;28;20046;-57
2023/04/07 09:22:41;;;;;;;40.60;15.18;;;;;;;10.86;100.00;100646.81;8297902;28;20526;-56
2023/04/07 09:26:41;;;;;;;30.48;14.90;;;;;;;11.02;100.00;100636.34;8288829;28;20037;-56
2023/04/07 09:30:52;;;;;;;33.45;15.15;;;;;;;11.27;100.00;100643.91;8283423;28;20129;-56
2023/04/07 09:34:58;;;;;;;40.90;17.25;;;;;;;11.34;100.00;100642.31;8300199;28;20526;-57
2023/04/07 09:39:07;;;;;;;35.17;15.32;;;;;;;11.51;100.00;100648.88;8301238;28;20049;-56
2023/04/07 09:43:15;;;;;;;36.65;17.65;;;;;;;11.65;100.00;100649.31;8293687;28;20065;-56
2023/04/07 09:47:16;;;;;;;42.45;17.08;;;;;;;11.82;100.00;100645.88;8290009;28;20037;-56
2023/04/07 09:51:17;;;;;;;40.72;17.27;;;;;;;11.76;100.00;100648.31;8300835;28;20046;-56
2023/04/07 09:55:22;;;;;;;31.92;16.30;;;;;;;11.88;100.00;100649.84;8310569;28;20061;-56
2023/04/07 09:59:24;;;;;;;35.10;14.68;;;;;;;12.07;100.00;100647.09;8315215;28;20037;-57
2023/04/07 10:03:25;;;;;;;34.75;15.10;;;;;;;12.12;100.00;100643.94;8306378;28;20087;-56
2023/04/07 10:07:26;;;;;;;29.20;14.13;;;;;;;12.02;98.20;100643.13;8309191;28;20086;-56
2023/04/07 10:11:27;;;;;;;31.08;14.00;;;;;;;12.19;99.65;100655.88;8297393;28;20268;-56
2023/04/07 10:15:27;;;;;;;23.75;12.10;;;;;;;12.24;97.96;100653.59;8314732;28;20495;-56
2023/04/07 10:19:31;;;;;;;25.25;12.75;;;;;;;12.54;99.31;100645.22;8314155;28;20041;-56
2023/04/07 10:23:47;;;;;;;21.83;11.60;;;;;;;12.66;96.00;100650.28;8315859;28;20523;-56
2023/04/07 10:27:53;;;;;;;24.60;12.18;;;;;;;12.37;93.72;100654.13;8324680;28;20048;-56
2023/04/07 10:31:54;;;;;;;25.45;12.20;;;;;;;12.49;95.79;100652.94;8314349;28;20092;-57
2023/04/07 10:36:10;;;;;;;23.73;12.27;;;;;;;12.38;98.42;100661.28;8303746;28;20041;-55
2023/04/07 10:44:47;;;;;;;26.05;13.40;;;;;;;11.80;100.00;100674.97;8334853;27;20400;-55
2023/04/07 10:49:08;;;;;;;27.90;12.32;;;;;;;11.78;98.10;100679.66;8336125;28;20150;-55
2023/04/07 10:53:11;;;;;;;21.65;11.73;;;;;;;11.79;96.88;100667.84;8335252;28;20087;-59
2023/04/07 10:57:14;;;;;;;26.42;12.23;;;;;;;12.21;98.61;100675.59;8336039;28;20563;-60
2023/04/07 11:01:17;;;;;;;29.25;13.40;;;;;;;12.46;96.34;100680.34;8341619;28;20128;-60
2023/04/07 11:05:21;;;;;;;27.90;12.88;;;;;;;12.55;95.93;100676.75;8335884;28;20037;-60
2023/04/07 11:09:22;;;;;;;26.60;13.48;;;;;;;12.27;93.59;100680.41;8339774;28;20478;-60
2023/04/07 11:13:22;;;;;;;28.73;12.68;;;;;;;12.11;97.26;100682.91;8334680;28;20056;-60
2023/04/07 11:17:23;;;;;;;24.70;12.98;;;;;;;11.93;98.43;100687.34;8331363;28;20037;-59
2023/04/07 11:21:23;;;;;;;25.70;13.20;;;;;;;11.93;99.84;100689.03;8337319;28;20579;-59
2023/04/07 11:25:26;;;;;;;22.70;12.52;;;;;;;12.15;97.30;100687.00;8335198;28;20044;-59
2023/04/07 11:29:28;;;;;;;25.45;13.27;;;;;;;12.18;96.82;100686.72;8331122;28;20037;-60
2023/04/07 11:33:31;;;;;;;26.08;14.63;;;;;;;12.08;94.72;100702.16;8342672;28;20034;-60
2023/04/07 11:37:31;;;;;;;31.70;15.23;;;;;;;12.04;95.78;100695.31;8318056;28;20037;-60
2023/04/07 11:41:32;;;;;;;30.20;15.25;;;;;;;11.99;98.05;100700.31;8326162;28;20051;-60
2023/04/07 11:45:33;;;;;;;39.70;19.42;;;;;;;11.88;98.01;100701.31;8338777;28;20038;-59
2023/04/07 11:49:33;;;;;;;31.40;15.57;;;;;;;11.93;98.98;100708.00;8324293;28;20496;-60
2023/04/07 11:53:39;;;;;;;31.35;14.88;;;;;;;11.85;97.54;100710.59;8318279;28;20455;-60
2023/04/07 11:57:40;;;;;;;26.92;13.18;;;;;;;11.89;97.33;100714.72;8306489;28;20046;-60
2023/04/07 12:01:41;;;;;;;35.13;18.42;;;;;;;11.77;96.09;100717.72;8305699;28;20046;-60
2023/04/07 12:05:43;;;;;;;28.35;14.88;;;;;;;11.81;95.99;100717.28;8319521;28;20033;-60
2023/04/07 12:09:46;;;;;;;34.85;19.40;;;;;;;11.89;95.96;100717.44;8318992;28;20103;-60
2023/04/07 12:13:46;;;;;;;31.85;15.10;;;;;;;11.95;96.20;100726.00;8318835;28;20463;-60
2023/04/07 12:17:48;;;;;;;28.67;14.63;;;;;;;12.08;94.62;100724.69;8319890;28;20119;-60
2023/04/07 12:21:48;;;;;;;31.08;14.98;;;;;;;12.17;94.40;100728.38;8306301;28;20046;-60
2023/04/07 12:25:49;;;;;;;24.55;14.52;;;;;;;12.23;92.99;100723.22;8318967;28;20042;-60
2023/04/07 12:29:49;;;;;;;28.02;15.77;;;;;;;12.43;93.16;100734.88;8319384;28;20038;-60
2023/04/07 12:33:50;;;;;;;30.23;14.07;;;;;;;12.50;93.29;100733.31;8314487;28;20046;-60
2023/04/07 12:37:51;;;;;;;32.97;15.00;;;;;;;12.77;94.48;100738.75;8324081;28;20037;-60
2023/04/07 12:41:52;;;;;;;25.88;14.60;;;;;;;12.64;91.52;100739.09;8326612;28;20049;-55
2023/04/07 12:45:52;;;;;;;26.42;14.93;;;;;;;12.70;93.30;100743.06;8310272;28;20046;-55
2023/04/07 12:49:53;;;;;;;25.23;13.18;;;;;;;12.63;93.44;100744.66;8314602;28;20041;-56
2023/04/07 12:53:53;;;;;;;24.73;12.38;;;;;;;12.45;92.37;100738.31;8318098;28;20280;-55
2023/04/07 12:57:54;;;;;;;25.80;14.25;;;;;;;12.70;93.53;100738.50;8318534;28;20118;-54
2023/04/07 13:01:55;;;;;;;29.38;14.45;;;;;;;12.86;91.52;100746.00;8317670;28;20128;-56
2023/04/07 13:06:00;;;;;;;27.77;14.27;;;;;;;13.05;92.04;100745.94;8315283;28;20056;-56
2023/04/07 13:10:00;;;;;;;30.50;13.85;;;;;;;12.99;91.67;100743.81;8314238;28;20806;-55
2023/04/07 13:14:01;;;;;;;27.90;14.32;;;;;;;13.34;92.06;100733.06;8316431;28;20041;-56
2023/04/07 13:18:02;;;;;;;21.75;12.43;;;;;;;13.15;88.21;100738.59;8318956;28;20056;-61
2023/04/07 13:22:02;;;;;;;22.40;12.50;;;;;;;13.20;88.05;100741.69;8318737;28;20304;-60
2023/04/07 13:26:03;;;;;;;21.95;11.70;;;;;;;13.62;87.76;100742.84;8318087;28;20025;-60
2023/04/07 13:30:04;;;;;;;20.50;10.95;;;;;;;13.71;85.96;100747.34;8317790;28;20048;-60
2023/04/07 13:34:04;;;;;;;17.15;8.73;;;;;;;13.95;85.49;100747.59;8314496;28;20038;-59
2023/04/07 13:38:05;;;;;;;19.00;8.20;;;;;;;13.79;83.24;100745.56;8317117;28;20049;-59
2023/04/07 13:42:05;;;;;;;15.82;8.98;;;;;;;13.67;84.26;100745.97;8318305;28;20242;-59
2023/04/07 13:46:06;;;;;;;16.83;8.63;;;;;;;13.75;86.12;100748.75;8317311;28;20103;-59
2023/04/07 13:50:07;;;;;;;14.90;8.38;;;;;;;13.56;86.81;100755.19;8318005;28;20045;-59
2023/04/07 13:54:07;;;;;;;18.65;9.25;;;;;;;13.59;87.82;100748.59;8317249;28;20033;-59
2023/04/07 13:58:08;;;;;;;19.92;12.05;;;;;;;13.66;88.72;100757.81;8317276;28;20129;-59
2023/04/07 14:02:08;;;;;;;26.20;13.98;;;;;;;13.32;90.60;100751.34;8315465;28;20354;-56
2023/04/07 14:06:09;;;;;;;29.92;15.10;;;;;;;13.24;88.98;100743.97;8315754;28;20507;-56
2023/04/07 14:10:09;;;;;;;33.88;17.15;;;;;;;13.42;90.47;100741.28;8316956;28;20041;-59
2023/04/07 14:14:10;;;;;;;25.23;14.30;;;;;;;13.60;87.88;100744.84;8315059;28;20045;-59
2023/04/07 14:18:10;;;;;;;24.73;13.57;;;;;;;13.50;86.25;100744.09;8314204;28;20118;-60
2023/04/07 14:22:12;;;;;;;24.85;12.80;;;;;;;13.88;85.45;100743.78;8313519;28;20126;-59
2023/04/07 14:26:13;;;;;;;20.50;11.57;;;;;;;14.14;84.88;100750.13;8305423;28;20234;-59
2023/04/07 14:30:13;;;;;;;17.85;10.25;;;;;;;14.00;83.27;100747.94;8305108;28;20037;-59
2023/04/07 14:34:14;;;;;;;18.60;11.55;;;;;;;13.88;85.94;100754.66;8301922;28;20084;-59
2023/04/07 14:38:14;;;;;;;17.75;9.82;;;;;;;13.68;84.85;100758.53;8294570;28;20113;-56
2023/04/07 14:42:15;;;;;;;15.52;9.75;;;;;;;13.39;83.72;100741.59;8297223;28;20156;-56
2023/04/07 14:46:15;;;;;;;17.23;9.65;;;;;;;13.79;86.34;100751.00;8295611;28;20038;-56
2023/04/07 14:50:16;;;;;;;28.75;14.93;;;;;;;13.97;85.97;100748.31;8313496;28;20072;-55
2023/04/07 14:54:16;;;;;;;16.88;8.80;;;;;;;14.13;84.38;100747.56;8304815;28;20053;-55
2023/04/07 14:58:17;;;;;;;16.55;9.52;;;;;;;14.30;87.24;100750.28;8315232;28;20034;-55
2023/04/07 15:02:17;;;;;;;15.32;9.30;;;;;;;14.36;85.90;100749.66;8297024;28;20041;-55
2023/04/07 15:06:18;;;;;;;19.45;9.65;;;;;;;14.16;84.56;100753.56;8308152;28;20063;-55
2023/04/07 15:10:19;;;;;;;22.13;9.82;;;;;;;14.19;86.81;100769.56;8316406;28;20041;-55
2023/04/07 15:14:20;;;;;;;13.25;7.10;;;;;;;13.68;84.33;100769.41;8316496;28;20041;-55
2023/04/07 15:18:20;;;;;;;19.90;10.20;;;;;;;13.44;85.28;100771.84;8313075;28;20117;-55
2023/04/07 15:22:21;;;;;;;18.02;7.18;;;;;;;13.39;86.40;100776.91;8313731;28;20115;-55
2023/04/07 15:26:21;;;;;;;12.20;6.43;;;;;;;13.63;86.30;100778.00;8301912;28;20052;-55
2023/04/07 15:30:22;;;;;;;10.95;6.68;;;;;;;14.23;86.91;100776.41;8297963;28;20037;-55
2023/04/07 15:34:22;;;;;;;10.27;6.45;;;;;;;14.31;84.21;100779.22;8311879;28;20120;-55
2023/04/07 15:38:23;;;;;;;14.52;6.45;;;;;;;14.36;84.05;100776.84;8308708;28;20100;-55
2023/04/07 15:42:23;;;;;;;14.18;5.85;;;;;;;14.01;82.47;100787.75;8304753;28;20046;-56
2023/04/07 15:46:24;;;;;;;12.45;5.95;;;;;;;13.61;82.57;100790.88;8304758;28;20103;-55
2023/04/07 15:50:26;;;;;;;10.35;4.97;;;;;;;13.35;84.12;100783.63;8292506;28;20041;-56
2023/04/07 15:54:27;;;;;;;12.70;5.70;;;;;;;13.49;85.42;100792.16;8306383;28;20042;-55
2023/04/07 15:58:27;;;;;;;16.38;6.53;;;;;;;13.35;88.04;100803.50;8306623;28;20099;-55
2023/04/07 16:02:28;;;;;;;10.65;6.28;;;;;;;13.33;86.75;100807.38;8308463;28;20041;-56
2023/04/07 16:06:28;;;;;;;23.08;15.70;;;;;;;13.13;86.85;100795.75;8297637;28;20092;-55
2023/04/07 16:10:29;;;;;;;15.30;6.25;;;;;;;13.14;87.43;100811.03;8320174;28;20120;-56
2023/04/07 16:14:30;;;;;;;13.63;5.43;;;;;;;13.08;89.30;100813.47;8291477;28;20046;-55
2023/04/07 16:24:30;;;;;;;12.02;5.63;;;;;;;12.97;86.77;100811.81;8314978;28;20056;-54
2023/04/07 16:28:32;;;;;;;9.55;5.40;;;;;;;12.93;86.78;100813.09;8319103;28;20025;-55
2023/04/07 16:32:34;;;;;;;14.85;5.88;;;;;;;12.86;87.57;100813.81;8313608;28;20433;-54
2023/04/07 16:36:34;;;;;;;13.20;5.10;;;;;;;12.90;87.56;100831.53;8317544;28;20428;-54
2023/04/07 16:40:35;;;;;;;10.63;5.45;;;;;;;12.94;85.42;100832.94;8312858;28;20037;-51
2023/04/07 16:44:35;;;;;;;11.10;5.38;;;;;;;12.86;86.48;100832.81;8306835;28;20041;-50
2023/04/07 16:48:35;;;;;;;13.20;5.57;;;;;;;12.81;85.92;100837.84;8309120;28;20073;-51
2023/04/07 16:52:36;;;;;;;14.60;6.00;;;;;;;12.72;85.15;100845.00;8306970;28;20044;-52
2023/04/07 16:56:37;;;;;;;10.82;5.10;;;;;;;12.63;85.62;100839.59;8314430;28;20037;-57
2023/04/07 17:00:37;;;;;;;18.10;7.00;;;;;;;12.46;86.59;100853.88;8302987;28;20045;-56
2023/04/07 17:04:38;;;;;;;15.98;7.13;;;;;;;12.38;87.54;100857.31;8306162;28;20053;-56
2023/04/07 17:08:39;;;;;;;14.25;6.38;;;;;;;12.38;88.81;100856.50;8307578;28;20046;-56
2023/04/07 17:12:39;;;;;;;11.13;6.65;;;;;;;12.49;88.08;100859.03;8307274;28;20458;-56
2023/04/07 17:16:40;;;;;;;14.23;7.20;;;;;;;12.37;90.39;100865.59;8297035;28;20448;-56
2023/04/07 17:20:41;;;;;;;13.35;7.93;;;;;;;12.55;90.43;100869.31;8293305;28;20503;-56
2023/04/07 17:24:41;;;;;;;27.25;12.48;;;;;;;12.52;90.18;100875.88;8316412;28;20330;-56
2023/04/07 17:28:44;;;;;;;40.28;20.05;;;;;;;12.56;91.31;100876.47;8316038;28;20042;-57
2023/04/07 17:32:45;;;;;;;38.40;18.08;;;;;;;12.60;90.84;100894.16;8304996;28;20053;-56
2023/04/07 17:36:45;;;;;;;29.70;14.05;;;;;;;12.44;94.95;100885.75;8318631;28;20124;-58
2023/04/07 17:40:46;;;;;;;25.30;13.43;;;;;;;12.22;97.77;100900.41;8318956;28;20037;-58
2023/04/07 17:44:50;;;;;;;26.25;13.10;;;;;;;11.95;98.13;100896.69;8315860;28;20672;-59
2023/04/07 17:48:50;;;;;;;25.02;15.75;;;;;;;12.01;98.48;100906.97;8313868;28;20639;-58
2023/04/07 17:52:51;;;;;;;21.25;9.38;;;;;;;12.01;97.54;100910.53;8317809;28;20041;-59
2023/04/07 17:56:51;;;;;;;25.73;15.15;;;;;;;11.97;98.15;100916.38;8305696;28;20084;-59
2023/04/07 18:00:52;;;;;;;25.48;10.57;;;;;;;11.89;97.84;100914.34;8319750;28;20292;-58
2023/04/07 18:04:53;;;;;;;29.05;9.18;;;;;;;11.82;96.20;100919.50;8318229;28;20049;-58
2023/04/07 18:08:53;;;;;;;31.60;13.70;;;;;;;11.78;97.40;100925.31;8316169;28;20065;-57
2023/04/07 18:12:54;;;;;;;28.75;11.60;;;;;;;11.75;97.99;100934.56;8316658;28;20499;-58
2023/04/07 18:16:55;;;;;;;26.63;11.15;;;;;;;11.72;97.51;100939.41;8317992;28;20041;-58
2023/04/07 18:20:55;;;;;;;17.98;8.95;;;;;;;11.66;97.03;100932.69;8314587;28;20103;-58
2023/04/07 18:24:56;;;;;;;25.77;11.68;;;;;;;11.60;96.40;100941.34;8308196;28;20049;-58
2023/04/07 18:28:56;;;;;;;19.73;8.07;;;;;;;11.63;96.36;100941.09;8316690;28;20084;-58
2023/04/07 18:32:57;;;;;;;15.18;7.80;;;;;;;11.60;96.00;100945.88;8316087;28;20037;-58